Time;durP1;ratioP1;P1;durP2;ratioP2;P2;SDS_P1;SDS_P2;PMS_P1;PMS_P2;Temp;Humidity;BMP_temperature;BMP_pressure;BME280_temperature;BME280_humidity;BME280_pressure;Samples;Min_cycle;Max_cycle;Signal;HPM_P1;HPM_P2
2021/03/08 00:00:23;;;;;;;6.40;1.30;;;7.10;50.60;;;;;;5051354;28;20492;-82
2021/03/08 00:02:49;;;;;;;0.30;0.30;;;7.00;50.60;;;;;;5068696;28;20130;-82
2021/03/08 00:05:16;;;;;;;3.80;1.50;;;7.00;50.70;;;;;;5040001;28;20045;-82
2021/03/08 00:07:44;;;;;;;3.83;1.17;;;6.90;50.70;;;;;;5055948;28;20029;-82
2021/03/08 00:10:15;;;;;;;3.70;0.87;;;6.80;50.80;;;;;;5056104;28;20036;-82
2021/03/08 00:12:42;;;;;;;;;;;6.80;50.90;;;;;;5055455;28;20024;-82
2021/03/08 00:15:08;;;;;;;1.53;1.00;;;6.80;50.90;;;;;;5052100;28;19912;-82
2021/03/08 00:17:37;;;;;;;5.27;1.43;;;6.70;50.90;;;;;;5057402;28;20037;-82
2021/03/08 00:20:05;;;;;;;2.37;0.60;;;6.70;51.00;;;;;;5056182;28;20040;-82
2021/03/08 00:22:31;;;;;;;4.33;0.87;;;6.70;51.00;;;;;;5055674;28;20025;-82
2021/03/08 00:24:57;;;;;;;0.40;0.40;;;6.60;51.00;;;;;;5052340;28;20441;-82
2021/03/08 00:27:23;;;;;;;3.50;1.52;;;6.60;51.10;;;;;;5049354;28;20405;-82
2021/03/08 00:29:49;;;;;;;2.95;1.25;;;6.50;51.10;;;;;;5039388;28;20044;-82
2021/03/08 00:32:16;;;;;;;2.50;1.00;;;6.50;51.20;;;;;;5038309;28;20029;-82
2021/03/08 00:34:42;;;;;;;2.43;0.87;;;6.50;51.30;;;;;;5056130;28;20026;-82
2021/03/08 00:37:08;;;;;;;3.23;1.53;;;6.40;51.30;;;;;;5041296;28;20040;-82
2021/03/08 00:39:34;;;;;;;6.67;1.37;;;6.40;51.30;;;;;;5054343;28;20084;-82
2021/03/08 00:42:00;;;;;;;1.55;0.47;;;6.30;51.40;;;;;;5060617;28;20509;-82
2021/03/08 00:44:26;;;;;;;2.93;1.30;;;6.30;51.40;;;;;;5057180;28;20032;-82
2021/03/08 00:46:58;;;;;;;0.53;0.40;;;6.30;51.50;;;;;;5062026;28;20421;-82
2021/03/08 00:49:24;;;;;;;0.97;0.30;;;6.30;51.50;;;;;;5080204;28;20033;-82
2021/03/08 00:51:50;;;;;;;3.77;1.47;;;6.20;51.50;;;;;;5039543;28;20037;-82
2021/03/08 00:54:17;;;;;;;4.30;2.33;;;6.20;51.60;;;;;;5034532;28;20044;-82
2021/03/08 00:56:43;;;;;;;3.37;1.43;;;6.10;51.70;;;;;;5068198;28;20036;-82
2021/03/08 00:59:09;;;;;;;7.03;1.13;;;6.10;51.70;;;;;;5056264;28;20025;-82
2021/03/08 01:01:35;;;;;;;1.90;1.07;;;6.10;51.80;;;;;;5036691;28;20518;-82
2021/03/08 01:04:01;;;;;;;3.50;1.00;;;6.00;51.90;;;;;;5056188;28;20031;-82
2021/03/08 01:06:27;;;;;;;1.33;0.80;;;6.00;52.00;;;;;;5064679;28;20405;-82
2021/03/08 01:08:53;;;;;;;1.00;0.70;;;5.90;52.10;;;;;;5052592;28;20489;-82
2021/03/08 01:11:19;;;;;;;0.03;0.00;;;5.90;52.20;;;;;;5057189;28;20036;-82
2021/03/08 01:13:45;;;;;;;2.97;1.03;;;5.80;52.30;;;;;;5064544;28;20040;-82
2021/03/08 01:16:11;;;;;;;1.50;0.97;;;5.80;52.50;;;;;;5063315;28;20397;-82
2021/03/08 01:18:37;;;;;;;2.33;1.13;;;5.70;52.50;;;;;;5053493;28;20021;-81
2021/03/08 01:21:04;;;;;;;4.47;1.87;;;5.70;52.60;;;;;;5054169;28;20469;-82
2021/03/08 01:23:30;;;;;;;5.00;1.43;;;5.60;52.60;;;;;;5056385;28;20028;-81
2021/03/08 01:25:56;;;;;;;2.10;1.20;;;5.60;52.60;;;;;;5060378;28;20040;-81
2021/03/08 01:28:22;;;;;;;1.73;0.60;;;5.70;52.60;;;;;;5063256;28;20032;-82
2021/03/08 01:30:48;;;;;;;2.73;1.03;;;5.70;52.60;;;;;;5054186;28;20037;-82
2021/03/08 01:33:14;;;;;;;2.23;1.13;;;5.70;52.70;;;;;;5035022;28;20037;-82
2021/03/08 01:35:41;;;;;;;0.60;0.33;;;5.60;52.60;;;;;;5056240;28;20056;-82
2021/03/08 01:38:07;;;;;;;2.57;0.97;;;5.60;52.60;;;;;;5054910;28;20029;-82
2021/03/08 01:40:34;;;;;;;1.83;0.67;;;5.60;52.70;;;;;;5055308;28;20044;-83
2021/03/08 01:43:00;;;;;;;2.10;1.67;;;5.60;52.70;;;;;;5061746;28;20059;-82
2021/03/08 01:45:26;;;;;;;2.60;0.53;;;5.50;52.80;;;;;;5052139;28;20052;-82
2021/03/08 01:47:53;;;;;;;3.23;0.60;;;5.50;53.00;;;;;;5054126;28;20040;-82
2021/03/08 01:50:38;;;;;;;1.00;0.50;;;5.40;53.00;;;;;;5055698;28;20029;-82
2021/03/08 01:53:07;;;;;;;4.47;1.90;;;5.40;53.00;;;;;;5056599;28;20080;-82
2021/03/08 01:55:34;;;;;;;1.07;0.97;;;5.40;53.10;;;;;;5062634;28;20029;-82
2021/03/08 01:58:00;;;;;;;5.63;1.43;;;5.40;53.10;;;;;;5064713;28;20508;-82
2021/03/08 02:00:27;;;;;;;2.13;1.23;;;5.40;53.10;;;;;;5050613;28;20032;-82
2021/03/08 02:02:53;;;;;;;3.80;1.33;;;5.40;53.10;;;;;;5038663;28;20037;-82
2021/03/08 02:05:23;;;;;;;0.83;0.67;;;5.40;53.10;;;;;;5031595;28;20512;-82
2021/03/08 02:07:50;;;;;;;3.90;0.77;;;5.30;53.20;;;;;;5054516;28;20024;-82
2021/03/08 02:10:16;;;;;;;2.10;0.67;;;5.30;53.30;;;;;;5055009;28;20029;-82
2021/03/08 02:12:48;;;;;;;2.90;1.13;;;5.20;53.30;;;;;;5061599;28;20032;-81
2021/03/08 02:15:14;;;;;;;4.13;1.07;;;5.20;53.50;;;;;;5052155;28;20396;-82
2021/03/08 02:18:04;;;;;;;3.90;1.33;;;5.20;53.60;;;;;;5054941;28;20025;-81
2021/03/08 02:20:55;;;;;;;1.73;1.00;;;5.10;53.60;;;;;;5053693;28;20504;-82
2021/03/08 02:23:56;;;;;;;3.03;1.60;;;5.10;53.60;;;;;;5056396;28;20037;-82
2021/03/08 02:26:26;;;;;;;0.60;0.50;;;5.10;53.60;;;;;;5054066;28;20048;-82
2021/03/08 02:28:55;;;;;;;1.63;1.30;;;5.10;53.70;;;;;;5033664;28;20069;-82
2021/03/08 02:31:21;;;;;;;1.23;0.87;;;5.00;53.70;;;;;;5048636;28;20045;-81
2021/03/08 02:33:58;;;;;;;4.73;1.17;;;5.00;53.80;;;;;;5037504;28;20473;-82
2021/03/08 02:36:27;;;;;;;3.17;1.40;;;4.90;53.90;;;;;;5038828;28;20048;-82
2021/03/08 02:38:58;;;;;;;1.60;0.73;;;4.90;53.90;;;;;;5037465;28;20048;-81
2021/03/08 02:41:24;;;;;;;1.52;0.98;;;4.90;53.90;;;;;;5038380;28;20037;-82
2021/03/08 02:43:54;;;;;;;7.50;0.83;;;4.90;54.20;;;;;;5037224;28;20021;-82
2021/03/08 02:46:28;;;;;;;1.13;0.77;;;4.80;54.30;;;;;;5035985;28;20045;-82
2021/03/08 02:48:58;;;;;;;2.47;0.93;;;4.70;54.40;;;;;;5016635;28;20047;-82
2021/03/08 02:51:27;;;;;;;2.53;1.23;;;4.70;54.50;;;;;;5056912;28;20037;-81
2021/03/08 02:53:56;;;;;;;1.33;0.83;;;4.70;54.60;;;;;;5054475;28;20294;-81
2021/03/08 02:56:24;;;;;;;3.00;0.97;;;4.70;54.60;;;;;;5038097;28;20021;-81
2021/03/08 02:58:50;;;;;;;3.80;1.57;;;4.60;54.70;;;;;;5054425;28;20040;-82
2021/03/08 03:01:20;;;;;;;1.07;0.63;;;4.60;54.70;;;;;;5050086;28;20513;-81
2021/03/08 03:03:48;;;;;;;4.90;1.53;;;4.60;54.90;;;;;;5039043;28;20421;-81
2021/03/08 03:06:15;;;;;;;1.70;1.17;;;4.60;54.90;;;;;;5045467;28;20044;-82
2021/03/08 03:08:42;;;;;;;6.30;2.43;;;4.50;55.00;;;;;;5048422;28;20051;-82
2021/03/08 03:11:08;;;;;;;1.03;0.70;;;4.50;55.10;;;;;;5053246;28;20036;-81
2021/03/08 03:13:39;;;;;;;0.20;0.17;;;4.50;55.30;;;;;;5021942;28;20041;-82
2021/03/08 03:16:06;;;;;;;2.97;1.42;;;4.40;55.50;;;;;;5034839;28;20041;-82
2021/03/08 03:18:33;;;;;;;1.43;0.70;;;4.40;55.70;;;;;;5050276;28;20037;-82
2021/03/08 03:21:00;;;;;;;1.77;1.23;;;4.30;55.80;;;;;;5033214;28;20041;-82
2021/03/08 03:23:26;;;;;;;1.13;1.07;;;4.30;55.90;;;;;;5018846;28;20052;-82
2021/03/08 03:25:52;;;;;;;5.53;1.00;;;4.30;55.90;;;;;;5046209;28;20048;-81
2021/03/08 03:28:18;;;;;;;1.30;0.70;;;4.20;56.00;;;;;;5051366;28;20040;-82
2021/03/08 03:30:44;;;;;;;4.30;1.90;;;4.20;56.00;;;;;;5034540;28;20025;-81
2021/03/08 03:33:11;;;;;;;2.47;1.20;;;4.20;56.20;;;;;;5052658;28;20052;-81
2021/03/08 03:35:37;;;;;;;1.40;0.57;;;4.10;56.20;;;;;;5053924;28;20049;-82
2021/03/08 03:38:03;;;;;;;2.47;1.03;;;4.10;56.20;;;;;;5042419;28;20045;-82
2021/03/08 03:40:29;;;;;;;1.90;0.90;;;4.10;56.30;;;;;;5057142;28;20047;-82
2021/03/08 03:42:56;;;;;;;7.37;1.63;;;4.10;56.60;;;;;;5057956;28;20059;-82
2021/03/08 03:45:22;;;;;;;0.47;0.40;;;4.00;56.70;;;;;;5052690;28;20401;-82
2021/03/08 03:47:49;;;;;;;6.27;1.07;;;4.00;57.00;;;;;;5057047;28;20033;-82
2021/03/08 03:50:17;;;;;;;3.87;2.13;;;4.00;57.00;;;;;;5037594;28;20034;-82
2021/03/08 03:52:43;;;;;;;4.47;1.27;;;3.90;57.10;;;;;;5053456;28;20032;-81
2021/03/08 03:55:11;;;;;;;1.33;0.93;;;3.90;57.00;;;;;;5056415;28;20032;-81
2021/03/08 03:57:48;;;;;;;1.40;0.77;;;3.90;57.20;;;;;;5055328;28;20507;-82
2021/03/08 04:00:19;;;;;;;0.60;0.50;;;3.90;57.40;;;;;;5052864;28;20036;-81
2021/03/08 04:02:51;;;;;;;4.65;1.60;;;3.80;57.50;;;;;;5048434;28;20500;-81
2021/03/08 04:05:22;;;;;;;3.47;1.10;;;3.80;57.70;;;;;;5056462;28;20044;-82
2021/03/08 04:07:49;;;;;;;0.70;0.50;;;3.80;57.70;;;;;;5056674;28;20032;-81
2021/03/08 04:10:15;;;;;;;3.17;1.07;;;3.70;57.80;;;;;;5058952;28;20397;-81
2021/03/08 04:12:43;;;;;;;5.67;1.77;;;3.70;57.80;;;;;;5055202;28;20032;-81
2021/03/08 04:15:10;;;;;;;1.47;0.77;;;3.70;57.80;;;;;;5051330;28;20029;-81
2021/03/08 04:17:37;;;;;;;0.33;0.20;;;3.70;57.80;;;;;;5057111;28;20033;-81
2021/03/08 04:20:04;;;;;;;1.57;0.70;;;3.70;57.80;;;;;;5056262;28;20040;-81
2021/03/08 04:22:31;;;;;;;2.03;0.33;;;3.70;58.00;;;;;;5058053;28;20025;-81
2021/03/08 04:24:58;;;;;;;2.07;1.30;;;3.70;58.10;;;;;;5056234;28;20095;-81
2021/03/08 04:27:24;;;;;;;4.33;1.77;;;3.60;58.20;;;;;;5052594;28;20049;-81
2021/03/08 04:29:50;;;;;;;3.03;0.83;;;3.60;58.20;;;;;;5038809;28;20021;-82
2021/03/08 04:32:17;;;;;;;3.37;1.43;;;3.60;58.30;;;;;;5033957;28;20036;-81
2021/03/08 04:34:43;;;;;;;3.43;1.93;;;3.60;58.30;;;;;;5056125;28;20025;-81
2021/03/08 04:37:09;;;;;;;2.63;0.90;;;3.60;58.40;;;;;;5057809;28;20036;-81
2021/03/08 04:39:36;;;;;;;1.97;0.83;;;3.60;58.40;;;;;;5053982;28;20056;-81
2021/03/08 04:42:06;;;;;;;2.20;1.30;;;3.60;58.50;;;;;;5056865;28;20517;-83
2021/03/08 04:44:33;;;;;;;1.80;1.47;;;3.60;58.50;;;;;;5051083;28;20067;-81
2021/03/08 04:46:59;;;;;;;2.17;1.47;;;3.60;58.40;;;;;;5023314;28;20060;-81
2021/03/08 04:49:25;;;;;;;7.30;1.60;;;3.60;58.40;;;;;;5055903;28;20036;-81
2021/03/08 04:51:51;;;;;;;3.83;1.97;;;3.60;58.20;;;;;;5055311;28;20466;-82
2021/03/08 04:54:17;;;;;;;3.67;1.90;;;3.70;58.30;;;;;;5034822;28;20021;-81
2021/03/08 04:56:44;;;;;;;6.57;1.77;;;3.70;58.20;;;;;;5039180;28;20033;-81
2021/03/08 04:59:11;;;;;;;0.20;0.20;;;3.70;58.20;;;;;;5056340;28;20474;-82
2021/03/08 05:01:37;;;;;;;2.40;1.53;;;3.60;58.20;;;;;;5055580;28;20040;-83
2021/03/08 05:04:05;;;;;;;2.27;0.50;;;3.60;58.30;;;;;;5055933;28;20032;-82
2021/03/08 05:06:31;;;;;;;6.47;1.50;;;3.60;58.30;;;;;;5047831;28;20040;-82
2021/03/08 05:08:58;;;;;;;0.47;0.20;;;3.60;58.40;;;;;;5054226;28;20488;-81
2021/03/08 05:11:24;;;;;;;2.97;1.47;;;3.60;58.30;;;;;;5054913;28;20040;-81
2021/03/08 05:13:50;;;;;;;0.77;0.50;;;3.60;58.40;;;;;;5055323;28;20036;-81
2021/03/08 05:16:17;;;;;;;1.80;1.67;;;3.60;58.50;;;;;;5055096;28;20029;-80
2021/03/08 05:18:44;;;;;;;3.43;1.77;;;3.60;58.50;;;;;;5054677;28;20036;-80
2021/03/08 05:21:12;;;;;;;3.67;1.43;;;3.50;58.50;;;;;;5035577;28;20040;-79
2021/03/08 05:23:38;;;;;;;4.83;1.73;;;3.50;58.50;;;;;;5039131;28;20458;-83
2021/03/08 05:26:04;;;;;;;1.60;1.00;;;3.50;58.60;;;;;;5038491;28;20048;-82
2021/03/08 05:28:31;;;;;;;1.20;0.83;;;3.50;58.60;;;;;;5041508;28;20485;-82
2021/03/08 05:30:59;;;;;;;2.00;1.47;;;3.50;58.60;;;;;;5054479;28;20503;-83
2021/03/08 05:33:25;;;;;;;2.07;0.67;;;3.50;58.70;;;;;;5051024;28;20021;-82
2021/03/08 05:35:53;;;;;;;2.60;1.40;;;3.50;58.70;;;;;;5055733;28;20390;-82
2021/03/08 05:38:20;;;;;;;1.77;1.30;;;3.50;58.70;;;;;;5049379;28;20430;-82
2021/03/08 05:41:06;;;;;;;1.77;1.30;;;3.50;58.70;;;;;;5051237;28;20040;-83
2021/03/08 05:43:34;;;;;;;5.03;1.77;;;3.50;58.70;;;;;;5052296;28;20034;-82
2021/03/08 05:46:07;;;;;;;3.43;2.03;;;3.50;58.70;;;;;;5045580;28;20036;-82
2021/03/08 05:49:01;;;;;;;3.73;1.30;;;3.40;58.60;;;;;;5053823;28;20029;-82
2021/03/08 05:51:48;;;;;;;1.40;1.03;;;3.40;58.60;;;;;;5038095;28;20048;-83
2021/03/08 05:54:26;;;;;;;1.00;0.77;;;3.40;58.60;;;;;;5052299;28;20040;-82
2021/03/08 05:57:14;;;;;;;4.23;1.97;;;3.40;58.60;;;;;;5064889;28;20099;-83
2021/03/08 05:59:45;;;;;;;4.27;1.63;;;3.40;58.70;;;;;;5056632;28;20029;-82
2021/03/08 06:02:42;;;;;;;2.97;1.30;;;3.30;58.80;;;;;;5070972;28;20553;-82
2021/03/08 06:05:30;;;;;;;4.50;1.33;;;3.30;58.90;;;;;;5055733;28;20037;-82
2021/03/08 06:08:17;;;;;;;4.23;1.83;;;3.30;58.90;;;;;;5056036;28;20047;-82
2021/03/08 06:10:47;;;;;;;3.87;1.33;;;3.20;58.90;;;;;;5070738;28;20037;-82
2021/03/08 06:13:16;;;;;;;2.50;1.03;;;3.20;58.80;;;;;;5056049;28;20029;-82
2021/03/08 06:15:42;;;;;;;3.10;1.20;;;3.20;58.80;;;;;;5054106;28;20040;-82
2021/03/08 06:18:08;;;;;;;2.93;2.00;;;3.20;59.00;;;;;;5018800;28;20040;-82
2021/03/08 06:20:34;;;;;;;4.23;1.73;;;3.20;59.00;;;;;;5034402;28;20513;-82
2021/03/08 06:23:01;;;;;;;7.50;1.80;;;3.20;59.00;;;;;;5041672;28;20037;-82
2021/03/08 06:25:28;;;;;;;2.10;1.20;;;3.20;59.00;;;;;;5055075;28;20481;-82
2021/03/08 06:27:54;;;;;;;9.43;1.47;;;3.20;59.00;;;;;;5021021;28;20057;-82
2021/03/08 06:30:20;;;;;;;3.73;2.33;;;3.30;59.00;;;;;;5049899;28;20037;-82
2021/03/08 06:32:47;;;;;;;2.97;1.77;;;3.30;58.90;;;;;;5038464;28;20062;-82
2021/03/08 06:35:14;;;;;;;6.03;1.80;;;3.30;58.90;;;;;;5036146;28;20462;-82
2021/03/08 06:37:40;;;;;;;4.40;2.30;;;3.30;58.90;;;;;;5042332;28;20036;-82
2021/03/08 06:40:09;;;;;;;0.80;0.67;;;3.30;58.90;;;;;;5046113;28;20040;-82
2021/03/08 06:42:35;;;;;;;3.37;1.83;;;3.20;58.90;;;;;;5051462;28;20072;-82
2021/03/08 06:45:01;;;;;;;2.60;1.53;;;3.20;59.00;;;;;;5052279;28;20044;-82
2021/03/08 06:47:27;;;;;;;1.63;1.17;;;3.20;59.00;;;;;;5054518;28;20414;-82
2021/03/08 06:49:53;;;;;;;4.40;1.80;;;3.20;59.10;;;;;;5056290;28;20033;-82
2021/03/08 06:52:21;;;;;;;4.77;2.53;;;3.20;59.10;;;;;;5038436;28;20045;-82
2021/03/08 06:55:01;;;;;;;2.00;1.30;;;3.20;59.10;;;;;;5050244;28;20029;-82
2021/03/08 06:57:31;;;;;;;5.33;1.10;;;3.10;59.20;;;;;;5041611;28;20025;-82
2021/03/08 07:00:04;;;;;;;10.83;1.70;;;3.20;59.20;;;;;;5056907;28;20343;-82
2021/03/08 07:02:42;;;;;;;4.07;2.43;;;3.20;59.20;;;;;;5056905;28;20040;-81
2021/03/08 07:05:13;;;;;;;2.80;1.07;;;3.20;59.20;;;;;;5059484;28;20033;-82
2021/03/08 07:08:01;;;;;;;0.77;0.57;;;3.20;59.30;;;;;;5063541;28;20501;-82
2021/03/08 07:10:37;;;;;;;4.10;2.73;;;3.10;59.30;;;;;;5064495;28;20501;-82
2021/03/08 07:13:05;;;;;;;0.80;0.67;;;3.10;59.30;;;;;;5057093;28;20039;-83
2021/03/08 07:15:31;;;;;;;1.03;0.93;;;3.20;59.30;;;;;;5045751;28;20389;-81
2021/03/08 07:17:57;;;;;;;0.57;0.43;;;3.20;59.30;;;;;;5061901;28;20021;-80
2021/03/08 07:20:26;;;;;;;2.73;1.93;;;3.20;59.30;;;;;;5042769;28;20025;-85
2021/03/08 07:22:53;;;;;;;4.00;1.63;;;3.20;59.30;;;;;;5065379;28;20032;-82
2021/03/08 07:25:31;;;;;;;8.37;1.47;;;3.20;59.30;;;;;;5065578;28;20033;-83
2021/03/08 07:27:58;;;;;;;0.77;0.53;;;3.30;59.40;;;;;;5050775;28;20041;-83
2021/03/08 07:30:28;;;;;;;2.40;0.93;;;3.30;59.40;;;;;;5050083;28;20052;-84
2021/03/08 07:33:05;;;;;;;1.63;1.10;;;3.40;59.50;;;;;;5035758;28;20029;-83
2021/03/08 07:35:42;;;;;;;5.27;1.77;;;3.70;59.40;;;;;;5035021;28;20493;-83
2021/03/08 07:38:15;;;;;;;0.00;0.00;;;4.00;58.80;;;;;;5049662;28;20045;-83
2021/03/08 07:40:42;;;;;;;2.37;1.80;;;4.40;58.30;;;;;;5051242;28;20028;-83
2021/03/08 07:43:22;;;;;;;3.23;2.40;;;4.50;58.10;;;;;;5051000;28;20056;-83
2021/03/08 07:45:48;;;;;;;1.33;0.70;;;4.80;57.90;;;;;;5050269;28;20029;-83
2021/03/08 07:48:15;;;;;;;4.87;1.23;;;5.00;57.60;;;;;;5050038;28;20049;-84
2021/03/08 07:50:42;;;;;;;4.80;2.23;;;5.10;57.50;;;;;;5048561;28;20021;-83
2021/03/08 07:53:28;;;;;;;8.63;2.53;;;5.30;57.30;;;;;;5045875;28;20037;-84
2021/03/08 07:56:12;;;;;;;5.90;2.80;;;5.70;56.90;;;;;;5047385;28;20044;-84
2021/03/08 07:58:39;;;;;;;1.83;1.00;;;5.90;56.50;;;;;;5031674;28;20044;-84
2021/03/08 08:01:06;;;;;;;3.50;2.37;;;6.10;56.40;;;;;;5050029;28;20037;-84
2021/03/08 08:03:33;;;;;;;7.43;2.30;;;6.20;56.30;;;;;;5050529;28;20031;-86
2021/03/08 08:06:01;;;;;;;4.73;1.37;;;6.20;56.40;;;;;;5050824;28;20056;-84
2021/03/08 08:08:28;;;;;;;2.40;0.93;;;6.30;56.40;;;;;;5056751;28;20037;-86
2021/03/08 08:10:55;;;;;;;1.13;0.83;;;6.50;56.40;;;;;;5046286;28;20424;-85
2021/03/08 08:13:28;;;;;;;4.43;1.20;;;6.70;56.20;;;;;;5063179;28;20029;-93
2021/03/08 08:15:54;;;;;;;2.27;1.70;;;6.60;56.80;;;;;;5059759;28;20071;-84
2021/03/08 08:18:21;;;;;;;3.53;1.27;;;6.60;56.40;;;;;;5049337;28;20025;-83
2021/03/08 08:20:49;;;;;;;2.53;1.00;;;6.60;56.40;;;;;;5047902;28;20496;-87
2021/03/08 08:23:15;;;;;;;0.30;0.27;;;6.70;56.40;;;;;;5051335;28;20029;-84
2021/03/08 08:25:41;;;;;;;1.47;1.17;;;6.80;56.40;;;;;;5034625;28;20037;-84
2021/03/08 08:28:07;;;;;;;0.20;0.20;;;6.70;56.40;;;;;;5016628;28;20054;-85
2021/03/08 08:30:33;;;;;;;2.30;0.73;;;6.50;56.70;;;;;;5046869;28;20029;-83
2021/03/08 08:32:59;;;;;;;2.53;1.60;;;6.50;57.00;;;;;;5051346;28;20035;-87
2021/03/08 08:35:30;;;;;;;3.97;1.40;;;6.60;57.10;;;;;;5055283;28;20401;-84
2021/03/08 08:38:14;;;;;;;3.90;1.70;;;6.70;57.00;;;;;;5032644;28;20059;-83
2021/03/08 08:40:42;;;;;;;0.73;0.40;;;6.90;56.80;;;;;;5052607;28;20052;-82
2021/03/08 08:43:17;;;;;;;0.60;0.30;;;7.00;56.50;;;;;;4995791;28;1579781;-84
2021/03/08 08:45:44;;;;;;;0.73;0.67;;;7.10;56.40;;;;;;5049375;28;20033;-86
2021/03/08 08:48:10;;;;;;;0.70;0.33;;;7.10;56.40;;;;;;5032985;28;20745;-85
2021/03/08 08:50:52;;;;;;;0.10;0.10;;;7.10;56.30;;;;;;5048611;28;20048;-87
2021/03/08 08:53:30;;;;;;;0.10;0.00;;;7.10;56.40;;;;;;5035106;28;20045;-86
2021/03/08 08:55:57;;;;;;;0.30;0.10;;;7.30;56.70;;;;;;5049892;28;20040;-85
2021/03/08 08:58:24;;;;;;;3.63;1.92;;;7.50;56.50;;;;;;5050673;28;20389;-85
2021/03/08 09:01:16;;;;;;;3.50;0.93;;;7.80;56.30;;;;;;5049385;28;20029;-87
2021/03/08 09:03:52;;;;;;;2.33;0.80;;;8.20;56.00;;;;;;5034943;28;20036;-84
2021/03/08 09:06:37;;;;;;;1.58;0.77;;;8.50;55.50;;;;;;5058912;28;20029;-85
2021/03/08 09:09:04;;;;;;;0.70;0.50;;;8.60;55.20;;;;;;5050129;28;20547;-85
2021/03/08 09:11:53;;;;;;;0.60;0.32;;;8.70;55.00;;;;;;5051198;28;20055;-85
2021/03/08 09:14:25;;;;;;;6.65;2.25;;;9.00;55.00;;;;;;5045026;28;20063;-85
2021/03/08 09:17:11;;;;;;;0.00;0.00;;;9.30;54.70;;;;;;5068200;28;20048;-84
2021/03/08 09:19:37;;;;;;;4.18;1.08;;;9.60;54.20;;;;;;5033736;28;20033;-85
2021/03/08 09:22:30;;;;;;;4.25;1.75;;;9.60;53.70;;;;;;5054422;28;20029;-86
2021/03/08 09:25:09;;;;;;;0.10;0.10;;;9.50;53.90;;;;;;5064758;28;20389;-85
2021/03/08 09:27:36;;;;;;;0.30;0.30;;;9.50;53.90;;;;;;5054174;28;20033;-83
2021/03/08 09:30:18;;;;;;;0.38;0.15;;;9.50;53.70;;;;;;5061372;28;20283;-82
2021/03/08 09:32:48;;;;;;;4.68;1.42;;;9.30;53.70;;;;;;5060211;28;20079;-83
2021/03/08 09:35:14;;;;;;;2.43;0.90;;;9.20;53.60;;;;;;5061925;28;20028;-83
2021/03/08 09:37:42;;;;;;;2.83;1.00;;;9.10;53.90;;;;;;5058351;28;20025;-83
2021/03/08 09:40:08;;;;;;;1.83;0.88;;;9.20;53.80;;;;;;5061463;28;20036;-83
2021/03/08 09:42:38;;;;;;;3.22;1.02;;;9.20;53.50;;;;;;5052152;28;20057;-84
2021/03/08 09:45:28;;;;;;;1.92;1.05;;;9.20;53.50;;;;;;5052403;28;20036;-83
2021/03/08 09:47:54;;;;;;;3.40;0.60;;;9.20;53.20;;;;;;5050862;28;20045;-86
2021/03/08 09:50:26;;;;;;;0.38;0.25;;;9.10;53.20;;;;;;5056643;28;20025;-87
2021/03/08 09:52:53;;;;;;;0.68;0.25;;;9.20;53.10;;;;;;5059665;28;20055;-87
2021/03/08 09:55:27;;;;;;;2.60;1.20;;;9.20;53.00;;;;;;5044998;28;20037;-86
2021/03/08 09:57:54;;;;;;;0.25;0.08;;;9.30;53.00;;;;;;5052708;28;20071;-86
2021/03/08 10:00:26;;;;;;;1.25;0.68;;;9.40;52.90;;;;;;5064309;28;20036;-87
2021/03/08 10:02:59;;;;;;;1.55;0.85;;;9.70;52.70;;;;;;5063472;28;20035;-85
2021/03/08 10:05:53;;;;;;;4.53;1.45;;;9.80;52.50;;;;;;5041519;28;20046;-84
2021/03/08 10:08:19;;;;;;;0.75;0.40;;;9.80;52.20;;;;;;5055060;28;20052;-85
2021/03/08 10:10:52;;;;;;;3.90;1.80;;;9.80;51.90;;;;;;5055661;28;20037;-85
2021/03/08 10:13:19;;;;;;;0.63;0.63;;;9.80;51.70;;;;;;5055345;28;20029;-85
2021/03/08 10:15:49;;;;;;;2.40;0.77;;;9.90;51.70;;;;;;5052335;28;20040;-85
2021/03/08 10:18:16;;;;;;;3.00;1.15;;;9.80;51.20;;;;;;5050228;28;20029;-83
2021/03/08 10:20:44;;;;;;;2.55;0.60;;;9.80;51.10;;;;;;5054766;28;20041;-84
2021/03/08 10:23:18;;;;;;;1.13;0.75;;;9.80;50.80;;;;;;5062960;28;20516;-86
2021/03/08 10:25:44;;;;;;;2.55;1.17;;;9.80;50.40;;;;;;5059352;28;20421;-88
2021/03/08 10:28:10;;;;;;;1.10;0.50;;;9.80;50.50;;;;;;5054262;28;20036;-86
2021/03/08 10:30:36;;;;;;;2.80;1.30;;;9.90;50.30;;;;;;5051154;28;20045;-89
2021/03/08 10:33:07;;;;;;;1.08;0.68;;;10.00;50.10;;;;;;5052613;28;20029;-84
2021/03/08 10:35:47;;;;;;;0.90;0.60;;;10.10;49.90;;;;;;5052951;28;20024;-85
2021/03/08 10:38:14;;;;;;;0.95;0.30;;;10.20;49.60;;;;;;5034787;28;20043;-84
2021/03/08 10:40:41;;;;;;;2.25;1.05;;;10.10;49.20;;;;;;5033520;28;20487;-86
2021/03/08 10:43:08;;;;;;;0.90;0.50;;;10.10;49.20;;;;;;5045341;28;20059;-88
2021/03/08 10:45:34;;;;;;;1.13;0.38;;;10.10;49.20;;;;;;5058662;28;20478;-82
2021/03/08 10:48:04;;;;;;;5.97;1.77;;;10.20;49.20;;;;;;5035833;28;20048;-84
2021/03/08 10:50:49;;;;;;;1.48;0.68;;;10.30;49.10;;;;;;5055021;28;20033;-82
2021/03/08 10:53:16;;;;;;;9.45;2.33;;;10.40;49.10;;;;;;5055849;28;20044;-85
2021/03/08 10:55:42;;;;;;;1.42;0.40;;;10.60;48.90;;;;;;5053892;28;20040;-83
2021/03/08 10:58:09;;;;;;;3.00;1.38;;;10.80;48.60;;;;;;5062997;28;20037;-83
2021/03/08 11:00:35;;;;;;;4.20;0.43;;;10.90;48.20;;;;;;5050229;28;20104;-86
2021/03/08 11:03:01;;;;;;;0.35;0.35;;;10.90;47.90;;;;;;5051463;28;20036;-88
2021/03/08 11:05:31;;;;;;;3.63;1.65;;;10.90;48.00;;;;;;5051520;28;20029;-85
2021/03/08 11:07:57;;;;;;;1.85;0.30;;;11.00;48.10;;;;;;5035496;28;20036;-85
2021/03/08 11:10:39;;;;;;;1.35;0.60;;;11.00;47.90;;;;;;5052000;28;20025;-85
2021/03/08 11:13:08;;;;;;;3.30;0.77;;;11.10;47.70;;;;;;5050058;28;20040;-87
2021/03/08 11:15:35;;;;;;;0.17;0.10;;;11.20;47.70;;;;;;5049768;28;20056;-83
2021/03/08 11:18:01;;;;;;;4.93;0.50;;;11.20;47.30;;;;;;5054581;28;20398;-83
2021/03/08 11:20:29;;;;;;;0.68;0.68;;;11.30;47.30;;;;;;5053672;28;20493;-84
2021/03/08 11:23:02;;;;;;;1.45;0.55;;;11.20;47.00;;;;;;5059147;28;20028;-86
2021/03/08 11:25:36;;;;;;;1.52;0.47;;;11.10;47.40;;;;;;5056389;28;20028;-86
2021/03/08 11:28:07;;;;;;;3.22;0.63;;;11.00;47.00;;;;;;5048097;28;20051;-88
2021/03/08 11:30:33;;;;;;;0.88;0.40;;;11.10;47.00;;;;;;5047346;28;20037;-86
2021/03/08 11:32:59;;;;;;;0.68;0.08;;;11.30;46.80;;;;;;5048566;28;20025;-86
2021/03/08 11:35:29;;;;;;;0.60;0.30;;;11.30;46.50;;;;;;5050438;28;20029;-91
2021/03/08 11:38:02;;;;;;;1.27;1.02;;;11.30;46.20;;;;;;5049360;28;20398;-84
2021/03/08 11:40:28;;;;;;;0.55;0.38;;;11.30;46.20;;;;;;5044824;28;20101;-84
2021/03/08 11:42:55;;;;;;;1.20;0.75;;;11.30;46.40;;;;;;5065597;28;20045;-84
2021/03/08 11:45:22;;;;;;;0.63;0.30;;;11.30;46.20;;;;;;5052145;28;20029;-85
2021/03/08 11:47:54;;;;;;;0.32;0.13;;;11.20;46.00;;;;;;5052242;28;20413;-88
2021/03/08 11:50:22;;;;;;;3.42;1.00;;;11.20;46.20;;;;;;5047353;28;20025;-89
2021/03/08 11:52:48;;;;;;;0.20;0.00;;;11.20;46.30;;;;;;5020937;28;20040;-93
2021/03/08 11:55:15;;;;;;;0.55;0.20;;;11.40;46.20;;;;;;5029032;28;20034;-89
2021/03/08 11:57:42;;;;;;;2.38;1.00;;;11.50;45.80;;;;;;5036770;28;20040;-89
2021/03/08 12:00:09;;;;;;;3.47;1.40;;;11.50;45.70;;;;;;5051050;28;20033;-88
2021/03/08 12:02:35;;;;;;;4.35;1.90;;;11.50;45.80;;;;;;5019589;28;20031;-85
2021/03/08 12:05:01;;;;;;;0.70;0.30;;;11.60;45.60;;;;;;5044268;28;20049;-86
2021/03/08 12:07:27;;;;;;;3.08;1.38;;;11.70;45.60;;;;;;5058425;28;20071;-85
2021/03/08 12:09:53;;;;;;;2.72;1.25;;;11.80;45.30;;;;;;5064238;28;20036;-87
2021/03/08 12:12:20;;;;;;;1.63;0.93;;;11.80;45.30;;;;;;5035482;28;20052;-86
2021/03/08 12:14:46;;;;;;;2.28;0.47;;;11.80;45.10;;;;;;5039619;28;20040;-86
2021/03/08 12:17:12;;;;;;;3.15;1.30;;;11.80;45.00;;;;;;5021909;28;20033;-85
2021/03/08 12:19:38;;;;;;;1.17;0.47;;;11.80;45.00;;;;;;5036321;28;20049;-86
2021/03/08 12:22:04;;;;;;;0.63;0.57;;;12.00;45.00;;;;;;5014281;28;20041;-87
2021/03/08 12:24:31;;;;;;;5.97;1.27;;;11.90;45.20;;;;;;5067470;28;20037;-85
2021/03/08 12:26:57;;;;;;;1.00;0.17;;;11.80;44.60;;;;;;5045588;28;20493;-85
2021/03/08 12:29:23;;;;;;;1.95;0.75;;;11.90;44.80;;;;;;5047185;28;20040;-88
2021/03/08 12:31:49;;;;;;;1.27;0.32;;;11.90;44.70;;;;;;5032849;28;20037;-85
2021/03/08 12:34:15;;;;;;;2.28;1.25;;;12.00;44.60;;;;;;5028904;28;20059;-86
2021/03/08 12:36:41;;;;;;;3.80;0.80;;;12.00;45.00;;;;;;5043724;28;20021;-85
2021/03/08 12:39:07;;;;;;;5.15;2.10;;;12.00;44.40;;;;;;5036574;28;20040;-85
2021/03/08 12:41:33;;;;;;;0.65;0.20;;;12.00;44.50;;;;;;5020067;28;20056;-84
2021/03/08 12:43:59;;;;;;;3.28;1.50;;;12.20;44.20;;;;;;5053725;28;20052;-88
2021/03/08 12:46:26;;;;;;;4.00;1.20;;;12.10;43.80;;;;;;5055701;28;20036;-87
2021/03/08 12:48:52;;;;;;;1.45;0.82;;;12.10;43.70;;;;;;5055680;28;20048;-87
2021/03/08 12:51:22;;;;;;;1.20;0.77;;;12.10;43.70;;;;;;5052810;28;20029;-88
2021/03/08 12:53:48;;;;;;;2.75;1.10;;;12.20;43.60;;;;;;5063181;28;20044;-88
2021/03/08 12:56:14;;;;;;;0.85;0.52;;;12.20;43.40;;;;;;5057141;28;20059;-88
2021/03/08 12:58:40;;;;;;;0.22;0.13;;;12.20;42.90;;;;;;5055960;28;20042;-88
2021/03/08 13:01:06;;;;;;;1.80;0.88;;;12.20;42.90;;;;;;5053333;28;20037;-87
2021/03/08 13:03:32;;;;;;;2.42;0.65;;;12.20;42.60;;;;;;5065951;28;20043;-87
2021/03/08 13:05:58;;;;;;;1.35;0.47;;;12.20;42.60;;;;;;5040618;28;20059;-87